sensor_id;sensor_type;location;lat;lon;timestamp;P1;durP1;ratioP1;P2;durP2;ratioP2
9657;SDS011;4867;48.112;11.622;2023-06-22T00:00:22;9.07;;;5.40;;
9657;SDS011;4867;48.112;11.622;2023-06-22T00:02:50;7.50;;;5.00;;
9657;SDS011;4867;48.112;11.622;2023-06-22T00:05:17;7.90;;;5.00;;
9657;SDS011;4867;48.112;11.622;2023-06-22T00:07:45;8.87;;;5.20;;
9657;SDS011;4867;48.112;11.622;2023-06-22T00:10:12;7.70;;;5.03;;
9657;SDS011;4867;48.112;11.622;2023-06-22T00:12:39;9.30;;;5.60;;
9657;SDS011;4867;48.112;11.622;2023-06-22T00:15:07;8.17;;;4.90;;
9657;SDS011;4867;48.112;11.622;2023-06-22T00:17:34;7.70;;;5.20;;
9657;SDS011;4867;48.112;11.622;2023-06-22T00:20:03;6.70;;;5.00;;
9657;SDS011;4867;48.112;11.622;2023-06-22T00:22:34;7.73;;;4.77;;
9657;SDS011;4867;48.112;11.622;2023-06-22T00:25:06;7.73;;;4.80;;
9657;SDS011;4867;48.112;11.622;2023-06-22T00:27:34;9.07;;;5.10;;
9657;SDS011;4867;48.112;11.622;2023-06-22T00:30:02;10.47;;;5.30;;
9657;SDS011;4867;48.112;11.622;2023-06-22T00:32:30;9.27;;;5.20;;
9657;SDS011;4867;48.112;11.622;2023-06-22T00:34:57;9.60;;;5.17;;
9657;SDS011;4867;48.112;11.622;2023-06-22T00:37:25;8.33;;;5.30;;
9657;SDS011;4867;48.112;11.622;2023-06-22T00:39:52;9.37;;;5.70;;
9657;SDS011;4867;48.112;11.622;2023-06-22T00:42:19;9.87;;;5.33;;
9657;SDS011;4867;48.112;11.622;2023-06-22T00:44:47;8.67;;;5.13;;
9657;SDS011;4867;48.112;11.622;2023-06-22T00:47:15;9.37;;;5.27;;
9657;SDS011;4867;48.112;11.622;2023-06-22T00:49:44;9.93;;;5.30;;
9657;SDS011;4867;48.112;11.622;2023-06-22T00:52:13;8.20;;;5.33;;
9657;SDS011;4867;48.112;11.622;2023-06-22T00:54:48;12.37;;;5.53;;
9657;SDS011;4867;48.112;11.622;2023-06-22T00:57:17;10.10;;;5.43;;
9657;SDS011;4867;48.112;11.622;2023-06-22T00:59:47;8.87;;;5.00;;
9657;SDS011;4867;48.112;11.622;2023-06-22T01:02:15;7.67;;;5.50;;
9657;SDS011;4867;48.112;11.622;2023-06-22T01:04:42;8.17;;;5.27;;
9657;SDS011;4867;48.112;11.622;2023-06-22T01:07:19;10.97;;;5.37;;
9657;SDS011;4867;48.112;11.622;2023-06-22T01:12:40;6.60;;;5.20;;
9657;SDS011;4867;48.112;11.622;2023-06-22T01:15:18;7.87;;;5.10;;
9657;SDS011;4867;48.112;11.622;2023-06-22T01:17:52;6.73;;;5.03;;
9657;SDS011;4867;48.112;11.622;2023-06-22T01:20:20;9.43;;;5.60;;
9657;SDS011;4867;48.112;11.622;2023-06-22T01:25:31;8.97;;;5.57;;
9657;SDS011;4867;48.112;11.622;2023-06-22T01:30:58;11.47;;;5.77;;
9657;SDS011;4867;48.112;11.622;2023-06-22T01:33:34;8.17;;;5.43;;
9657;SDS011;4867;48.112;11.622;2023-06-22T01:36:03;10.97;;;5.33;;
9657;SDS011;4867;48.112;11.622;2023-06-22T01:38:32;9.73;;;5.50;;
9657;SDS011;4867;48.112;11.622;2023-06-22T01:41:00;9.17;;;5.10;;
9657;SDS011;4867;48.112;11.622;2023-06-22T01:43:29;9.67;;;5.10;;
9657;SDS011;4867;48.112;11.622;2023-06-22T01:45:59;5.67;;;4.97;;
9657;SDS011;4867;48.112;11.622;2023-06-22T01:48:27;7.30;;;5.37;;
9657;SDS011;4867;48.112;11.622;2023-06-22T01:50:55;7.67;;;4.90;;
9657;SDS011;4867;48.112;11.622;2023-06-22T01:53:23;10.60;;;5.80;;
9657;SDS011;4867;48.112;11.622;2023-06-22T01:55:51;8.87;;;5.63;;
9657;SDS011;4867;48.112;11.622;2023-06-22T01:58:22;7.93;;;5.30;;
9657;SDS011;4867;48.112;11.622;2023-06-22T02:00:55;7.77;;;5.33;;
9657;SDS011;4867;48.112;11.622;2023-06-22T02:03:26;9.17;;;5.77;;
9657;SDS011;4867;48.112;11.622;2023-06-22T02:06:03;7.37;;;5.93;;
9657;SDS011;4867;48.112;11.622;2023-06-22T02:08:40;9.83;;;5.20;;
9657;SDS011;4867;48.112;11.622;2023-06-22T02:11:13;8.73;;;5.70;;
9657;SDS011;4867;48.112;11.622;2023-06-22T02:13:43;10.30;;;5.80;;
9657;SDS011;4867;48.112;11.622;2023-06-22T02:16:11;8.33;;;5.60;;
9657;SDS011;4867;48.112;11.622;2023-06-22T02:18:45;8.73;;;6.47;;
9657;SDS011;4867;48.112;11.622;2023-06-22T02:21:19;11.13;;;5.87;;
9657;SDS011;4867;48.112;11.622;2023-06-22T02:23:48;8.73;;;5.80;;
9657;SDS011;4867;48.112;11.622;2023-06-22T02:26:16;10.23;;;6.60;;
9657;SDS011;4867;48.112;11.622;2023-06-22T02:28:44;8.97;;;6.80;;
9657;SDS011;4867;48.112;11.622;2023-06-22T02:31:12;9.00;;;6.67;;
9657;SDS011;4867;48.112;11.622;2023-06-22T02:33:40;8.00;;;5.97;;
9657;SDS011;4867;48.112;11.622;2023-06-22T02:36:10;10.37;;;6.40;;
9657;SDS011;4867;48.112;11.622;2023-06-22T02:38:43;8.93;;;5.90;;
9657;SDS011;4867;48.112;11.622;2023-06-22T02:41:15;7.50;;;6.10;;
9657;SDS011;4867;48.112;11.622;2023-06-22T02:43:45;10.17;;;6.70;;
9657;SDS011;4867;48.112;11.622;2023-06-22T02:46:13;10.23;;;5.93;;
9657;SDS011;4867;48.112;11.622;2023-06-22T02:48:48;7.27;;;6.00;;
9657;SDS011;4867;48.112;11.622;2023-06-22T02:51:16;9.03;;;6.17;;
9657;SDS011;4867;48.112;11.622;2023-06-22T02:53:43;8.27;;;5.97;;
9657;SDS011;4867;48.112;11.622;2023-06-22T02:56:13;7.90;;;6.07;;
9657;SDS011;4867;48.112;11.622;2023-06-22T02:58:43;8.63;;;6.00;;
9657;SDS011;4867;48.112;11.622;2023-06-22T03:01:11;12.13;;;6.00;;
9657;SDS011;4867;48.112;11.622;2023-06-22T03:03:43;9.47;;;6.03;;
9657;SDS011;4867;48.112;11.622;2023-06-22T03:06:10;8.43;;;5.77;;
9657;SDS011;4867;48.112;11.622;2023-06-22T03:08:40;9.80;;;5.93;;
9657;SDS011;4867;48.112;11.622;2023-06-22T03:11:08;7.87;;;6.00;;
9657;SDS011;4867;48.112;11.622;2023-06-22T03:13:36;9.40;;;5.87;;
9657;SDS011;4867;48.112;11.622;2023-06-22T03:16:03;11.37;;;6.03;;
9657;SDS011;4867;48.112;11.622;2023-06-22T03:18:30;7.20;;;5.47;;
9657;SDS011;4867;48.112;11.622;2023-06-22T03:20:58;9.40;;;5.60;;
9657;SDS011;4867;48.112;11.622;2023-06-22T03:23:25;9.23;;;5.47;;
9657;SDS011;4867;48.112;11.622;2023-06-22T03:25:52;9.20;;;6.03;;
9657;SDS011;4867;48.112;11.622;2023-06-22T03:28:22;8.83;;;6.50;;
9657;SDS011;4867;48.112;11.622;2023-06-22T03:30:49;8.70;;;6.70;;
9657;SDS011;4867;48.112;11.622;2023-06-22T03:33:17;11.80;;;6.50;;
9657;SDS011;4867;48.112;11.622;2023-06-22T03:35:44;8.20;;;6.23;;
9657;SDS011;4867;48.112;11.622;2023-06-22T03:38:12;10.23;;;6.40;;
9657;SDS011;4867;48.112;11.622;2023-06-22T03:40:39;9.27;;;6.73;;
9657;SDS011;4867;48.112;11.622;2023-06-22T03:43:06;12.13;;;6.90;;
9657;SDS011;4867;48.112;11.622;2023-06-22T03:45:35;10.33;;;6.13;;
9657;SDS011;4867;48.112;11.622;2023-06-22T03:48:02;10.50;;;6.17;;
9657;SDS011;4867;48.112;11.622;2023-06-22T03:50:31;9.73;;;6.53;;
9657;SDS011;4867;48.112;11.622;2023-06-22T03:52:58;8.73;;;6.60;;
9657;SDS011;4867;48.112;11.622;2023-06-22T03:55:25;10.33;;;6.63;;
9657;SDS011;4867;48.112;11.622;2023-06-22T03:57:53;8.83;;;6.07;;
9657;SDS011;4867;48.112;11.622;2023-06-22T04:00:23;8.77;;;6.50;;
9657;SDS011;4867;48.112;11.622;2023-06-22T04:02:51;9.67;;;6.53;;
9657;SDS011;4867;48.112;11.622;2023-06-22T04:05:18;9.53;;;6.87;;
9657;SDS011;4867;48.112;11.622;2023-06-22T04:07:46;10.50;;;7.13;;
9657;SDS011;4867;48.112;11.622;2023-06-22T04:10:13;10.67;;;6.90;;
9657;SDS011;4867;48.112;11.622;2023-06-22T04:12:44;8.87;;;6.33;;
9657;SDS011;4867;48.112;11.622;2023-06-22T04:15:11;12.17;;;7.00;;
9657;SDS011;4867;48.112;11.622;2023-06-22T04:17:38;9.23;;;6.73;;
9657;SDS011;4867;48.112;11.622;2023-06-22T04:20:06;10.77;;;7.27;;
9657;SDS011;4867;48.112;11.622;2023-06-22T04:22:34;10.50;;;7.47;;
9657;SDS011;4867;48.112;11.622;2023-06-22T04:25:01;10.53;;;6.93;;
9657;SDS011;4867;48.112;11.622;2023-06-22T04:27:29;14.10;;;7.23;;
9657;SDS011;4867;48.112;11.622;2023-06-22T04:29:57;11.30;;;7.60;;
9657;SDS011;4867;48.112;11.622;2023-06-22T04:32:27;12.13;;;7.70;;
9657;SDS011;4867;48.112;11.622;2023-06-22T04:34:54;10.87;;;7.77;;
9657;SDS011;4867;48.112;11.622;2023-06-22T04:37:22;11.13;;;7.53;;
9657;SDS011;4867;48.112;11.622;2023-06-22T04:39:50;12.17;;;7.60;;
9657;SDS011;4867;48.112;11.622;2023-06-22T04:42:17;9.43;;;7.70;;
9657;SDS011;4867;48.112;11.622;2023-06-22T04:44:45;10.97;;;7.00;;
9657;SDS011;4867;48.112;11.622;2023-06-22T04:47:12;12.90;;;8.13;;
9657;SDS011;4867;48.112;11.622;2023-06-22T04:49:39;9.60;;;7.50;;
9657;SDS011;4867;48.112;11.622;2023-06-22T04:52:10;9.87;;;7.67;;
9657;SDS011;4867;48.112;11.622;2023-06-22T04:54:39;11.37;;;8.60;;
9657;SDS011;4867;48.112;11.622;2023-06-22T04:57:14;10.60;;;8.17;;
9657;SDS011;4867;48.112;11.622;2023-06-22T04:59:42;11.30;;;8.30;;
9657;SDS011;4867;48.112;11.622;2023-06-22T05:02:09;12.77;;;8.20;;
9657;SDS011;4867;48.112;11.622;2023-06-22T05:04:38;14.10;;;8.60;;
9657;SDS011;4867;48.112;11.622;2023-06-22T05:07:06;13.83;;;8.43;;
9657;SDS011;4867;48.112;11.622;2023-06-22T05:09:34;15.43;;;9.13;;
9657;SDS011;4867;48.112;11.622;2023-06-22T05:12:02;12.43;;;8.13;;
9657;SDS011;4867;48.112;11.622;2023-06-22T05:14:29;12.97;;;8.23;;
9657;SDS011;4867;48.112;11.622;2023-06-22T05:16:57;14.23;;;9.07;;
9657;SDS011;4867;48.112;11.622;2023-06-22T05:19:30;12.13;;;8.43;;
9657;SDS011;4867;48.112;11.622;2023-06-22T05:22:01;12.47;;;8.27;;
9657;SDS011;4867;48.112;11.622;2023-06-22T05:24:28;14.20;;;8.93;;
9657;SDS011;4867;48.112;11.622;2023-06-22T05:26:56;13.07;;;8.37;;
9657;SDS011;4867;48.112;11.622;2023-06-22T05:29:23;15.20;;;8.60;;
9657;SDS011;4867;48.112;11.622;2023-06-22T05:31:50;13.33;;;8.70;;
9657;SDS011;4867;48.112;11.622;2023-06-22T05:34:17;13.00;;;9.40;;
9657;SDS011;4867;48.112;11.622;2023-06-22T05:36:45;11.60;;;8.77;;
9657;SDS011;4867;48.112;11.622;2023-06-22T05:39:13;14.20;;;9.35;;
9657;SDS011;4867;48.112;11.622;2023-06-22T05:41:41;12.80;;;9.27;;
9657;SDS011;4867;48.112;11.622;2023-06-22T05:44:10;13.77;;;9.63;;
9657;SDS011;4867;48.112;11.622;2023-06-22T05:46:40;14.80;;;8.53;;
9657;SDS011;4867;48.112;11.622;2023-06-22T05:49:11;11.40;;;8.87;;
9657;SDS011;4867;48.112;11.622;2023-06-22T05:51:40;12.73;;;8.77;;
9657;SDS011;4867;48.112;11.622;2023-06-22T05:54:08;17.23;;;9.00;;
9657;SDS011;4867;48.112;11.622;2023-06-22T05:56:35;13.68;;;8.70;;
9657;SDS011;4867;48.112;11.622;2023-06-22T05:59:03;11.43;;;8.27;;
9657;SDS011;4867;48.112;11.622;2023-06-22T06:01:31;12.37;;;9.33;;
9657;SDS011;4867;48.112;11.622;2023-06-22T06:04:03;15.00;;;9.23;;
9657;SDS011;4867;48.112;11.622;2023-06-22T06:06:31;17.23;;;8.30;;
9657;SDS011;4867;48.112;11.622;2023-06-22T06:08:59;11.20;;;8.33;;
9657;SDS011;4867;48.112;11.622;2023-06-22T06:11:26;13.90;;;9.13;;
9657;SDS011;4867;48.112;11.622;2023-06-22T06:13:54;13.53;;;8.47;;
9657;SDS011;4867;48.112;11.622;2023-06-22T06:16:21;17.70;;;9.40;;
9657;SDS011;4867;48.112;11.622;2023-06-22T06:18:49;16.50;;;8.43;;
9657;SDS011;4867;48.112;11.622;2023-06-22T06:21:17;13.97;;;9.07;;
9657;SDS011;4867;48.112;11.622;2023-06-22T06:23:45;13.73;;;9.43;;
9657;SDS011;4867;48.112;11.622;2023-06-22T06:26:12;10.97;;;8.47;;
9657;SDS011;4867;48.112;11.622;2023-06-22T06:28:39;12.82;;;8.70;;
9657;SDS011;4867;48.112;11.622;2023-06-22T06:31:07;11.75;;;8.50;;
9657;SDS011;4867;48.112;11.622;2023-06-22T06:33:36;13.68;;;8.75;;
9657;SDS011;4867;48.112;11.622;2023-06-22T06:36:03;12.40;;;8.80;;
9657;SDS011;4867;48.112;11.622;2023-06-22T06:38:30;13.25;;;8.73;;
9657;SDS011;4867;48.112;11.622;2023-06-22T06:40:58;11.93;;;8.80;;
9657;SDS011;4867;48.112;11.622;2023-06-22T06:43:26;17.13;;;9.05;;
9657;SDS011;4867;48.112;11.622;2023-06-22T06:45:53;14.40;;;9.10;;
9657;SDS011;4867;48.112;11.622;2023-06-22T06:48:21;10.75;;;8.40;;
9657;SDS011;4867;48.112;11.622;2023-06-22T06:50:48;14.85;;;9.35;;
9657;SDS011;4867;48.112;11.622;2023-06-22T06:53:17;15.13;;;9.20;;
9657;SDS011;4867;48.112;11.622;2023-06-22T06:55:44;15.48;;;9.10;;
9657;SDS011;4867;48.112;11.622;2023-06-22T06:58:12;13.88;;;9.52;;
9657;SDS011;4867;48.112;11.622;2023-06-22T07:00:40;14.20;;;9.48;;
9657;SDS011;4867;48.112;11.622;2023-06-22T07:03:08;14.00;;;9.35;;
9657;SDS011;4867;48.112;11.622;2023-06-22T07:05:36;17.77;;;9.27;;
9657;SDS011;4867;48.112;11.622;2023-06-22T07:08:03;12.60;;;9.00;;
9657;SDS011;4867;48.112;11.622;2023-06-22T07:10:30;13.98;;;8.88;;
9657;SDS011;4867;48.112;11.622;2023-06-22T07:12:58;13.52;;;9.70;;
9657;SDS011;4867;48.112;11.622;2023-06-22T07:15:25;13.57;;;9.15;;
9657;SDS011;4867;48.112;11.622;2023-06-22T07:17:54;14.27;;;9.43;;
9657;SDS011;4867;48.112;11.622;2023-06-22T07:20:21;14.38;;;9.55;;
9657;SDS011;4867;48.112;11.622;2023-06-22T07:22:48;15.20;;;9.63;;
9657;SDS011;4867;48.112;11.622;2023-06-22T07:25:16;15.73;;;9.10;;
9657;SDS011;4867;48.112;11.622;2023-06-22T07:27:45;17.77;;;9.30;;
9657;SDS011;4867;48.112;11.622;2023-06-22T07:30:14;13.55;;;9.25;;
9657;SDS011;4867;48.112;11.622;2023-06-22T07:32:42;16.05;;;9.57;;
9657;SDS011;4867;48.112;11.622;2023-06-22T07:35:09;14.95;;;9.05;;
9657;SDS011;4867;48.112;11.622;2023-06-22T07:37:37;13.80;;;8.85;;
9657;SDS011;4867;48.112;11.622;2023-06-22T07:40:05;13.05;;;9.15;;
9657;SDS011;4867;48.112;11.622;2023-06-22T07:42:33;11.93;;;8.82;;
9657;SDS011;4867;48.112;11.622;2023-06-22T07:45:02;13.15;;;9.18;;
9657;SDS011;4867;48.112;11.622;2023-06-22T07:47:30;15.05;;;9.48;;
9657;SDS011;4867;48.112;11.622;2023-06-22T07:50:02;14.77;;;9.43;;
9657;SDS011;4867;48.112;11.622;2023-06-22T07:52:30;17.35;;;9.65;;
9657;SDS011;4867;48.112;11.622;2023-06-22T07:54:58;15.10;;;9.45;;
9657;SDS011;4867;48.112;11.622;2023-06-22T07:57:26;16.30;;;9.43;;
9657;SDS011;4867;48.112;11.622;2023-06-22T07:59:59;18.05;;;9.45;;
9657;SDS011;4867;48.112;11.622;2023-06-22T08:02:38;16.05;;;9.77;;
9657;SDS011;4867;48.112;11.622;2023-06-22T08:05:07;16.27;;;9.23;;
9657;SDS011;4867;48.112;11.622;2023-06-22T08:07:47;12.93;;;8.80;;
9657;SDS011;4867;48.112;11.622;2023-06-22T08:10:15;13.48;;;9.25;;
9657;SDS011;4867;48.112;11.622;2023-06-22T08:12:42;15.05;;;8.98;;
9657;SDS011;4867;48.112;11.622;2023-06-22T08:15:10;15.18;;;9.13;;
9657;SDS011;4867;48.112;11.622;2023-06-22T08:17:38;13.98;;;8.93;;
9657;SDS011;4867;48.112;11.622;2023-06-22T08:20:06;14.23;;;9.38;;
9657;SDS011;4867;48.112;11.622;2023-06-22T08:22:39;14.65;;;9.32;;
9657;SDS011;4867;48.112;11.622;2023-06-22T08:25:07;12.38;;;8.93;;
9657;SDS011;4867;48.112;11.622;2023-06-22T08:27:35;13.00;;;9.18;;
9657;SDS011;4867;48.112;11.622;2023-06-22T08:30:03;14.07;;;9.35;;
9657;SDS011;4867;48.112;11.622;2023-06-22T08:32:31;15.48;;;9.20;;
9657;SDS011;4867;48.112;11.622;2023-06-22T08:35:00;14.18;;;9.10;;
9657;SDS011;4867;48.112;11.622;2023-06-22T08:37:27;14.82;;;9.00;;
9657;SDS011;4867;48.112;11.622;2023-06-22T08:39:59;13.45;;;9.50;;
9657;SDS011;4867;48.112;11.622;2023-06-22T08:42:28;14.25;;;8.93;;
9657;SDS011;4867;48.112;11.622;2023-06-22T08:44:55;12.32;;;8.93;;
9657;SDS011;4867;48.112;11.622;2023-06-22T08:47:22;16.38;;;8.75;;
9657;SDS011;4867;48.112;11.622;2023-06-22T08:49:50;16.60;;;9.15;;
9657;SDS011;4867;48.112;11.622;2023-06-22T08:52:18;14.95;;;8.20;;
9657;SDS011;4867;48.112;11.622;2023-06-22T08:54:47;17.92;;;9.52;;
9657;SDS011;4867;48.112;11.622;2023-06-22T08:57:15;16.48;;;9.23;;
9657;SDS011;4867;48.112;11.622;2023-06-22T08:59:43;15.60;;;8.90;;
9657;SDS011;4867;48.112;11.622;2023-06-22T09:02:10;14.73;;;8.88;;
9657;SDS011;4867;48.112;11.622;2023-06-22T09:04:37;12.82;;;8.25;;
9657;SDS011;4867;48.112;11.622;2023-06-22T09:07:05;14.02;;;9.27;;
9657;SDS011;4867;48.112;11.622;2023-06-22T09:09:33;15.02;;;8.95;;
9657;SDS011;4867;48.112;11.622;2023-06-22T09:12:00;19.23;;;8.65;;
9657;SDS011;4867;48.112;11.622;2023-06-22T09:14:28;17.48;;;8.98;;
9657;SDS011;4867;48.112;11.622;2023-06-22T09:16:55;15.07;;;8.77;;
9657;SDS011;4867;48.112;11.622;2023-06-22T09:19:22;17.95;;;8.90;;
9657;SDS011;4867;48.112;11.622;2023-06-22T09:21:50;12.90;;;9.32;;
9657;SDS011;4867;48.112;11.622;2023-06-22T09:24:17;17.17;;;8.98;;
9657;SDS011;4867;48.112;11.622;2023-06-22T09:26:44;14.80;;;8.45;;
9657;SDS011;4867;48.112;11.622;2023-06-22T09:29:12;17.73;;;8.52;;
9657;SDS011;4867;48.112;11.622;2023-06-22T09:31:39;21.40;;;9.23;;
9657;SDS011;4867;48.112;11.622;2023-06-22T09:34:06;18.65;;;8.98;;
9657;SDS011;4867;48.112;11.622;2023-06-22T09:36:34;13.57;;;9.23;;
9657;SDS011;4867;48.112;11.622;2023-06-22T09:39:01;14.23;;;8.75;;
9657;SDS011;4867;48.112;11.622;2023-06-22T09:41:32;15.80;;;8.77;;
9657;SDS011;4867;48.112;11.622;2023-06-22T09:44:00;17.67;;;8.65;;
9657;SDS011;4867;48.112;11.622;2023-06-22T09:46:27;15.48;;;9.10;;
9657;SDS011;4867;48.112;11.622;2023-06-22T09:48:56;15.68;;;8.75;;
9657;SDS011;4867;48.112;11.622;2023-06-22T09:51:23;14.90;;;9.30;;
9657;SDS011;4867;48.112;11.622;2023-06-22T09:53:51;13.38;;;9.02;;
9657;SDS011;4867;48.112;11.622;2023-06-22T09:56:20;16.85;;;8.40;;
9657;SDS011;4867;48.112;11.622;2023-06-22T09:58:48;19.00;;;9.32;;
9657;SDS011;4867;48.112;11.622;2023-06-22T10:01:20;21.73;;;9.38;;
9657;SDS011;4867;48.112;11.622;2023-06-22T10:03:48;15.35;;;8.60;;
9657;SDS011;4867;48.112;11.622;2023-06-22T10:06:16;16.83;;;8.85;;
9657;SDS011;4867;48.112;11.622;2023-06-22T10:08:44;16.98;;;8.95;;
9657;SDS011;4867;48.112;11.622;2023-06-22T10:11:11;13.18;;;8.55;;
9657;SDS011;4867;48.112;11.622;2023-06-22T10:13:38;17.35;;;9.00;;
9657;SDS011;4867;48.112;11.622;2023-06-22T10:16:05;13.77;;;8.80;;
9657;SDS011;4867;48.112;11.622;2023-06-22T10:18:33;17.77;;;8.75;;
9657;SDS011;4867;48.112;11.622;2023-06-22T10:21:01;13.10;;;8.50;;
9657;SDS011;4867;48.112;11.622;2023-06-22T10:23:28;18.88;;;8.98;;
9657;SDS011;4867;48.112;11.622;2023-06-22T10:25:56;19.05;;;8.90;;
9657;SDS011;4867;48.112;11.622;2023-06-22T10:28:24;12.27;;;8.48;;
9657;SDS011;4867;48.112;11.622;2023-06-22T10:30:52;17.25;;;8.95;;
9657;SDS011;4867;48.112;11.622;2023-06-22T10:33:20;16.08;;;8.77;;
9657;SDS011;4867;48.112;11.622;2023-06-22T10:35:47;16.20;;;8.52;;
9657;SDS011;4867;48.112;11.622;2023-06-22T10:38:14;15.30;;;8.95;;
9657;SDS011;4867;48.112;11.622;2023-06-22T10:40:42;17.65;;;8.63;;
9657;SDS011;4867;48.112;11.622;2023-06-22T10:43:09;13.93;;;8.35;;
9657;SDS011;4867;48.112;11.622;2023-06-22T10:45:36;18.73;;;8.35;;
9657;SDS011;4867;48.112;11.622;2023-06-22T10:48:04;17.92;;;8.73;;
9657;SDS011;4867;48.112;11.622;2023-06-22T10:50:31;15.30;;;8.40;;
9657;SDS011;4867;48.112;11.622;2023-06-22T10:52:59;17.05;;;8.27;;
9657;SDS011;4867;48.112;11.622;2023-06-22T10:55:26;14.20;;;8.07;;
9657;SDS011;4867;48.112;11.622;2023-06-22T10:58:06;19.40;;;8.82;;
9657;SDS011;4867;48.112;11.622;2023-06-22T11:00:34;18.00;;;9.15;;
9657;SDS011;4867;48.112;11.622;2023-06-22T11:03:02;20.90;;;8.48;;
9657;SDS011;4867;48.112;11.622;2023-06-22T11:05:29;14.73;;;8.68;;
9657;SDS011;4867;48.112;11.622;2023-06-22T11:07:57;14.90;;;8.43;;
9657;SDS011;4867;48.112;11.622;2023-06-22T11:10:24;19.92;;;9.35;;
9657;SDS011;4867;48.112;11.622;2023-06-22T11:12:52;19.23;;;9.05;;
9657;SDS011;4867;48.112;11.622;2023-06-22T11:15:20;17.35;;;8.43;;
9657;SDS011;4867;48.112;11.622;2023-06-22T11:17:47;13.25;;;8.50;;
9657;SDS011;4867;48.112;11.622;2023-06-22T11:20:14;18.13;;;9.10;;
9657;SDS011;4867;48.112;11.622;2023-06-22T11:22:42;15.98;;;8.55;;
9657;SDS011;4867;48.112;11.622;2023-06-22T11:25:09;18.10;;;8.52;;
9657;SDS011;4867;48.112;11.622;2023-06-22T11:27:39;15.25;;;9.07;;
9657;SDS011;4867;48.112;11.622;2023-06-22T11:30:06;16.40;;;8.68;;
9657;SDS011;4867;48.112;11.622;2023-06-22T11:32:35;16.08;;;8.10;;
9657;SDS011;4867;48.112;11.622;2023-06-22T11:35:02;17.08;;;8.40;;
9657;SDS011;4867;48.112;11.622;2023-06-22T11:37:30;13.27;;;8.35;;
9657;SDS011;4867;48.112;11.622;2023-06-22T11:39:57;15.20;;;8.73;;
9657;SDS011;4867;48.112;11.622;2023-06-22T11:42:33;15.95;;;9.20;;
9657;SDS011;4867;48.112;11.622;2023-06-22T11:45:01;15.77;;;8.95;;
9657;SDS011;4867;48.112;11.622;2023-06-22T11:47:31;14.80;;;9.35;;
9657;SDS011;4867;48.112;11.622;2023-06-22T11:49:59;19.88;;;8.98;;
9657;SDS011;4867;48.112;11.622;2023-06-22T11:52:26;14.57;;;8.52;;
9657;SDS011;4867;48.112;11.622;2023-06-22T11:54:54;17.67;;;9.27;;
9657;SDS011;4867;48.112;11.622;2023-06-22T11:57:21;17.60;;;8.95;;
9657;SDS011;4867;48.112;11.622;2023-06-22T11:59:48;18.15;;;9.25;;
9657;SDS011;4867;48.112;11.622;2023-06-22T12:02:16;16.70;;;9.25;;
9657;SDS011;4867;48.112;11.622;2023-06-22T12:04:43;16.98;;;9.45;;
9657;SDS011;4867;48.112;11.622;2023-06-22T12:07:20;18.30;;;9.60;;
9657;SDS011;4867;48.112;11.622;2023-06-22T12:09:47;17.63;;;9.20;;
9657;SDS011;4867;48.112;11.622;2023-06-22T12:12:14;18.95;;;9.73;;
9657;SDS011;4867;48.112;11.622;2023-06-22T12:14:42;15.50;;;9.48;;
9657;SDS011;4867;48.112;11.622;2023-06-22T12:17:09;18.92;;;9.30;;
9657;SDS011;4867;48.112;11.622;2023-06-22T12:19:36;16.65;;;9.30;;
9657;SDS011;4867;48.112;11.622;2023-06-22T12:22:04;28.48;;;9.73;;
9657;SDS011;4867;48.112;11.622;2023-06-22T12:24:31;19.63;;;9.65;;
9657;SDS011;4867;48.112;11.622;2023-06-22T12:26:58;21.02;;;9.32;;
9657;SDS011;4867;48.112;11.622;2023-06-22T12:29:25;22.23;;;9.15;;
9657;SDS011;4867;48.112;11.622;2023-06-22T12:31:53;16.20;;;9.57;;
9657;SDS011;4867;48.112;11.622;2023-06-22T12:34:20;20.33;;;9.45;;
9657;SDS011;4867;48.112;11.622;2023-06-22T12:36:47;16.25;;;9.35;;
9657;SDS011;4867;48.112;11.622;2023-06-22T12:39:15;18.55;;;9.68;;
9657;SDS011;4867;48.112;11.622;2023-06-22T12:41:42;16.75;;;8.82;;
9657;SDS011;4867;48.112;11.622;2023-06-22T12:44:10;16.13;;;8.70;;
9657;SDS011;4867;48.112;11.622;2023-06-22T12:46:37;17.40;;;9.45;;
9657;SDS011;4867;48.112;11.622;2023-06-22T12:49:05;20.08;;;9.45;;
9657;SDS011;4867;48.112;11.622;2023-06-22T12:51:32;22.52;;;9.75;;
9657;SDS011;4867;48.112;11.622;2023-06-22T12:54:01;15.70;;;8.45;;
9657;SDS011;4867;48.112;11.622;2023-06-22T12:56:28;16.88;;;8.90;;
9657;SDS011;4867;48.112;11.622;2023-06-22T12:58:55;17.40;;;8.93;;
9657;SDS011;4867;48.112;11.622;2023-06-22T13:01:22;14.55;;;8.88;;
9657;SDS011;4867;48.112;11.622;2023-06-22T13:03:50;20.30;;;8.68;;
9657;SDS011;4867;48.112;11.622;2023-06-22T13:06:18;18.63;;;9.25;;
9657;SDS011;4867;48.112;11.622;2023-06-22T13:08:45;17.35;;;8.82;;
9657;SDS011;4867;48.112;11.622;2023-06-22T13:11:15;17.23;;;8.68;;
9657;SDS011;4867;48.112;11.622;2023-06-22T13:13:44;18.88;;;8.88;;
9657;SDS011;4867;48.112;11.622;2023-06-22T13:16:12;19.83;;;9.45;;
9657;SDS011;4867;48.112;11.622;2023-06-22T13:18:39;15.02;;;8.23;;
9657;SDS011;4867;48.112;11.622;2023-06-22T13:21:06;17.90;;;8.88;;
9657;SDS011;4867;48.112;11.622;2023-06-22T13:23:34;16.95;;;8.90;;
9657;SDS011;4867;48.112;11.622;2023-06-22T13:26:01;17.80;;;9.13;;
9657;SDS011;4867;48.112;11.622;2023-06-22T13:28:29;16.50;;;8.55;;
9657;SDS011;4867;48.112;11.622;2023-06-22T13:30:57;16.15;;;8.77;;
9657;SDS011;4867;48.112;11.622;2023-06-22T13:33:24;16.52;;;8.85;;
9657;SDS011;4867;48.112;11.622;2023-06-22T13:35:51;20.88;;;8.65;;
9657;SDS011;4867;48.112;11.622;2023-06-22T13:38:19;18.27;;;8.55;;
9657;SDS011;4867;48.112;11.622;2023-06-22T13:40:46;22.35;;;9.38;;
9657;SDS011;4867;48.112;11.622;2023-06-22T13:43:14;16.13;;;8.40;;
9657;SDS011;4867;48.112;11.622;2023-06-22T13:45:43;14.40;;;8.50;;
9657;SDS011;4867;48.112;11.622;2023-06-22T13:48:10;14.15;;;8.90;;
9657;SDS011;4867;48.112;11.622;2023-06-22T13:50:38;19.35;;;9.32;;
9657;SDS011;4867;48.112;11.622;2023-06-22T13:53:05;14.15;;;8.13;;
9657;SDS011;4867;48.112;11.622;2023-06-22T13:55:32;15.20;;;9.07;;
9657;SDS011;4867;48.112;11.622;2023-06-22T13:58:00;15.15;;;8.20;;
9657;SDS011;4867;48.112;11.622;2023-06-22T14:00:27;16.42;;;8.80;;
9657;SDS011;4867;48.112;11.622;2023-06-22T14:02:55;19.42;;;8.48;;
9657;SDS011;4867;48.112;11.622;2023-06-22T14:05:23;18.23;;;8.32;;
9657;SDS011;4867;48.112;11.622;2023-06-22T14:07:50;18.52;;;8.52;;
9657;SDS011;4867;48.112;11.622;2023-06-22T14:10:17;16.00;;;8.38;;
9657;SDS011;4867;48.112;11.622;2023-06-22T14:12:45;15.65;;;7.97;;
9657;SDS011;4867;48.112;11.622;2023-06-22T14:15:12;14.27;;;8.68;;
9657;SDS011;4867;48.112;11.622;2023-06-22T14:17:40;19.98;;;8.82;;
9657;SDS011;4867;48.112;11.622;2023-06-22T14:20:07;18.35;;;9.48;;
9657;SDS011;4867;48.112;11.622;2023-06-22T14:22:35;16.05;;;8.27;;
9657;SDS011;4867;48.112;11.622;2023-06-22T14:25:04;15.13;;;8.43;;
9657;SDS011;4867;48.112;11.622;2023-06-22T14:27:31;14.60;;;8.35;;
9657;SDS011;4867;48.112;11.622;2023-06-22T14:29:59;15.23;;;8.18;;
9657;SDS011;4867;48.112;11.622;2023-06-22T14:32:27;14.02;;;8.25;;
9657;SDS011;4867;48.112;11.622;2023-06-22T14:34:56;18.23;;;8.48;;
9657;SDS011;4867;48.112;11.622;2023-06-22T14:37:24;14.50;;;7.95;;
9657;SDS011;4867;48.112;11.622;2023-06-22T14:39:51;14.07;;;8.10;;
9657;SDS011;4867;48.112;11.622;2023-06-22T14:42:19;14.48;;;7.72;;
9657;SDS011;4867;48.112;11.622;2023-06-22T14:44:46;14.20;;;8.35;;
9657;SDS011;4867;48.112;11.622;2023-06-22T14:47:13;16.33;;;8.05;;
9657;SDS011;4867;48.112;11.622;2023-06-22T14:49:41;19.98;;;8.55;;
9657;SDS011;4867;48.112;11.622;2023-06-22T14:52:08;15.95;;;7.60;;
9657;SDS011;4867;48.112;11.622;2023-06-22T14:54:35;15.93;;;7.93;;
9657;SDS011;4867;48.112;11.622;2023-06-22T14:57:03;18.10;;;8.05;;
9657;SDS011;4867;48.112;11.622;2023-06-22T14:59:30;19.73;;;7.97;;
9657;SDS011;4867;48.112;11.622;2023-06-22T15:01:58;13.85;;;8.00;;
9657;SDS011;4867;48.112;11.622;2023-06-22T15:04:25;17.63;;;8.65;;